SBJVSBNF

Guest
Details From SBJV - LAURO CARNEIRO DE LOYOLA
To SBNF - Ministro Victor Konder
Flight Number -
Tags generated
Created
Modified
Stats Distance 43 nm / 79 km
Max Altitude 2,300 ft / 701 m
Waypoints 3
Social Downloads 0
Likes 0
Share VATSIM

Download

Looking for another format? Having issues loading an existing format? Contact us
Advertisement - Login to hide

Notes

Basic altitude profile: - Ascent Rate: 2500ft/min - Ascent Speed: 250kts - Cruise Altitude: 35000ft - Cruise Speed: 420kts - Descent Rate: 1500ft/min - Descent Speed: 250kts Options: - Use NATs: yes - Use PACOTS: yes - Use low airways: yes - Use high airways: yes

Route

SBJV GLOVE SBNF

ID Type Via Altitude Latitude Longitude Leg Dist Tot Dist Heading (true) Name
O SBJV APT - 0 ft / 0 m -26.22445˚ -48.79736˚ - 0 nm - LAURO CARNEIRO DE LOYOLA
GLOVE FIX - 2,300 ft / 701 m -26.75117˚ -48.79500˚ 31 nm 31 nm 180° / 180° -
O SBNF APT - 0 ft / 0 m -26.88000˚ -48.65139˚ 10 nm 42 nm 135° / 135° Ministro Victor Konder

Altitude Profile

Advertisement - Login to hide

SBJV

Details ICAO SBJV (JOI)
Name LAURO CARNEIRO DE LOYOLA
Region Brazil
Timezone Unknown (UTC+0.0)
Stats Elevation 15 ft / 5 m (AMSL)
Location -26.224452° -48.797362°
Runways 1
Magnetic Variation 19.688° W

METAR

SBJV 221300Z 14005KT CAVOK 16/11 Q1020

Decode

TAF

TAF SBJV 220900Z 2212/2224 12005KT CAVOK TN14/2212Z TX23/2218Z RMK PDJ

Decode

Departure Runways

ID Width Length Bearing (true) Bearing (mag) Surface Threshold Offset Overrun Length
15 148 ft / 45 m 5,382 ft / 1,640 m 128.89° 148.58° Asphalt 0 ft / 0 m 200 ft / 61 m
33 148 ft / 45 m 5,382 ft / 1,640 m 308.88° 328.57° Asphalt 0 ft / 0 m 200 ft / 61 m

SBNF

Details ICAO SBNF (NVT)
Name Ministro Victor Konder
Region Brazil
Timezone America/Sao_Paulo (UTC-3.0)
Stats Elevation 18 ft / 5 m (AMSL)
Location -26.879998° -48.651387°
Runways 1
Magnetic Variation 19.573° W

METAR

SBNF 221400Z 25006KT CAVOK 18/13 Q1019

Decode

TAF

TAF SBNF 220900Z 2212/2312 25007KT CAVOK TX22/2218Z TN14/2309Z BECMG 2212/2214 15005KT BECMG 2300/2302 9999 BKN020 RMK PDJ

Decode

Destination Runways

ID Width Length Bearing (true) Bearing (mag) Surface Threshold Offset Overrun Length
07 148 ft / 45 m 5,580 ft / 1,701 m 54.86° 74.43° Asphalt 0 ft / 0 m 190 ft / 58 m
25 148 ft / 45 m 5,580 ft / 1,701 m 234.85° 254.42° Asphalt 0 ft / 0 m 195 ft / 59 m

Popular Alternatives